Owen Roberts International Airport
MWCR : rendu visible

Aérodrome :











RETROUVEZ-NOUS SUR...

 
LOGIN :

S'inscrire | Disclaimer

   EN    FR    IT 

 









Légende :    VFR   VFR Marginal   IFR   IFR Intensif   IFR Très Intensif
Visi : 
Plafond : 
>= 8 km
>= 3000ft
5 à 8 km
1000 à 3000 ft
1500m à 5 km
500 à 1000 ft
800 à 1500m
200 à 500 ft
< 800m
< 200 ft
Symboles :   Orages  Brouillard  Fortes neiges  Fortes précipitations  Vent > 20 kt







- Altitude de l'aérodrome : 8 ft
- Code IATA : GCM


MWCR - Owen Roberts International

DERNIER METAR :
  • 202300Z 06016KT 9999 FEW018 31/26 Q1014

METARs EXPIRÉS :
  • 202200Z 06013KT 9999 FEW018 32/26 Q1014
  • 202100Z 10010KT 9999 FEW018 33/26 Q1015

TAF TAF MWCR
Valide du 21 à 00h jusqu'au 22 à 00h UTC


202300Z 2100/2124 08012KT 9999 FEW018
PROB30
TEMPO 2118/2124 13015KT 8000 TS VCSH SCT016CB SCT035
FIR MKJK / Amérique du Nord



MET'MAP, la Météo Aéronautique d'un coup d'oeil ! - Copyright ORBIFLY Décembre 2007 - Disclaimer

ORBIFLY MET'MAP TEAM :

Programmation & Développement : Alexandra Zaïnal
Conception & Développement : Baudouin d'Aumeries
Co-Programmation & Développement : Marc-Olivier Méhu
Soutien technique & logistique : Manuel Goepfert

Contact : metmap@orbifly.com




SOURCES & CREDITS :

   NOAA       Earth
Advisory